Sardinia Regina — IBMS — position and weather

sailwx.info

Track history (hours):
 
Tides and Currents Weather Stations Pressure Air Temp Water Temp Dewpoint Dewpoint Depression Visibility Wind Speed Wind Dir Waves Ship Positions

Sardinia Regina

Last reported at 2014-Oct-02 14:33 UTC. Time now 2014-Oct-02 14:39 UTC.
Position N 43°03' E 009°59'.

Length 146 m; draft 5 m.

Type: Passenger vessel. MMSI: 247079000.

Date/timePositionNaut miles runAvg speedWind from/ knotsBaromVisibWave heightAir tempDewpointWater temp
2014-Oct-02 14:33N 43°03' E 009°59'13 2.5
2014-Oct-02 09:33N 42°54' E 009°48'1616.0
2014-Oct-02 08:33N 43°06' E 010°01'1616.7
2014-Oct-02 07:33N 43°22' E 010°08'1313.1
2014-Oct-02 06:34N 43°33' E 010°18'0 0.1
2014-Oct-02 05:34N 43°33' E 010°18'3 3.4
2014-Oct-02 04:33N 43°31' E 010°15'1616.1
2014-Oct-02 03:33N 43°15' E 010°09'13915.3
2014-Oct-01 18:29N 40°58' E 009°38'132 6.3
2014-Sep-30 21:33N 43°08' E 010°05'1717.2
2014-Sep-30 20:33N 43°25' E 010°11'1010.0
2014-Sep-30 19:33N 43°33' E 010°18'0 0.0
2014-Sep-30 18:33N 43°33' E 010°18'0 0.0
2014-Sep-30 17:33N 43°33' E 010°18'0 0.0
2014-Sep-30 16:33N 43°33' E 010°18'1110.9
2014-Sep-30 15:33N 43°24' E 010°11'1918.0
2014-Sep-30 14:31N 43°06' E 010°01'17 3.2
2014-Sep-30 09:16N 42°53' E 009°47'1216.6
2014-Sep-30 08:33N 43°02' E 009°58'1717.3
2014-Sep-30 07:33N 43°18' E 010°06'1615.9
2014-Sep-30 06:33N 43°32' E 010°16'2 1.7
2014-Sep-30 05:33N 43°33' E 010°18'0 0.0
2014-Sep-30 04:33N 43°33' E 010°18'0 0.0
2014-Sep-30 03:33N 43°33' E 010°18'0 0.0
2014-Sep-30 02:33N 43°33' E 010°18'0 0.0
2014-Sep-30 01:33N 43°33' E 010°18'0 0.0
2014-Sep-30 00:33N 43°33' E 010°18'0 0.0
2014-Sep-29 23:33N 43°33' E 010°18'0 0.0
2014-Sep-29 22:33N 43°33' E 010°18'0 0.0
2014-Sep-29 21:33N 43°33' E 010°18'0 0.0
2014-Sep-29 20:33N 43°33' E 010°18'0 0.0
2014-Sep-29 19:33N 43°33' E 010°18'0 0.0
2014-Sep-29 18:33N 43°33' E 010°18'0 0.0
2014-Sep-29 17:33N 43°33' E 010°18'0 0.0
2014-Sep-29 16:33N 43°33' E 010°18'0 0.0
2014-Sep-29 15:33N 43°33' E 010°18'0 0.0
2014-Sep-29 14:33N 43°33' E 010°18'0 0.0
2014-Sep-29 13:33N 43°33' E 010°18'0 0.0
2014-Sep-29 12:33N 43°33' E 010°18'0 0.0
2014-Sep-29 11:33N 43°33' E 010°18'0 0.0
2014-Sep-29 10:33N 43°33' E 010°18'0 0.0
2014-Sep-29 09:33N 43°33' E 010°18'0 0.0
2014-Sep-29 08:33N 43°33' E 010°18'0 0.0
2014-Sep-29 07:33N 43°33' E 010°18'0 0.0
2014-Sep-29 06:33N 43°33' E 010°18'0 0.0
2014-Sep-29 05:33N 43°33' E 010°18'9 9.1
2014-Sep-29 04:33N 43°25' E 010°12'3215.3
2014-Sep-29 02:28N 42°54' E 010°02'2115.3
2014-Sep-29 01:07N 42°34' E 009°58'915.1
2014-Sep-29 00:32N 42°25' E 009°56'28 1.2
2014-Sep-28 01:31N 41°58' E 009°50'1515.2
2014-Sep-28 00:34N 42°12' E 009°53'1515.1
2014-Sep-27 23:34N 42°27' E 009°56'1515.1
2014-Sep-27 22:34N 42°42' E 009°58'1515.3
2014-Sep-27 21:34N 42°57' E 010°03'1515.4
2014-Sep-27 20:34N 43°13' E 010°06'1515.4
2014-Sep-27 19:34N 43°27' E 010°12'7 7.2
2014-Sep-27 18:33N 43°33' E 010°18'0 0.0
2014-Sep-27 17:33N 43°33' E 010°18'0 0.0
2014-Sep-27 16:33N 43°33' E 010°18'3 3.0
2014-Sep-27 15:34N 43°31' E 010°15'1717.2
2014-Sep-27 14:33N 43°15' E 010°06'1817.3
2014-Sep-27 13:32N 42°59' E 009°57'8 2.0
2014-Sep-27 09:23N 42°54' E 009°48'1417.1
2014-Sep-27 08:33N 43°04' E 009°60'1818.0
2014-Sep-27 07:33N 43°21' E 010°08'1413.5
2014-Sep-27 06:34N 43°33' E 010°18'0 0.3
2014-Sep-27 05:33N 43°33' E 010°18'3 2.9
2014-Sep-27 04:33N 43°31' E 010°15'1514.9
2014-Sep-27 03:33N 43°17' E 010°08'1616.1
2014-Sep-27 02:33N 43°01' E 010°04'1616.3
2014-Sep-27 01:33N 42°45' E 009°60'17 1.0
2014-Sep-26 09:34N 43°01' E 010°04'1817.6
2014-Sep-26 08:34N 43°19' E 010°09'1515.0
2014-Sep-26 07:33N 43°32' E 010°17'1 0.8
2014-Sep-26 06:33N 43°33' E 010°18'0 0.0
2014-Sep-26 05:33N 43°33' E 010°18'3 3.2
2014-Sep-26 04:33N 43°31' E 010°15'1616.1
2014-Sep-26 03:33N 43°15' E 010°09'14 0.7
2014-Sep-25 09:18N 43°02' E 010°04'1317.9
2014-Sep-25 08:34N 43°15' E 010°08'1717.2
2014-Sep-25 07:33N 43°32' E 010°14'3 3.0
2014-Sep-25 06:33N 43°33' E 010°18'0 0.0
2014-Sep-25 05:33N 43°33' E 010°18'4 4.0
2014-Sep-25 04:33N 43°30' E 010°14'1515.1
2014-Sep-25 03:33N 43°16' E 010°09'19 1.0
2014-Sep-24 09:12N 42°57' E 010°02'1118.1
2014-Sep-24 08:33N 43°08' E 010°06'1817.7
2014-Sep-24 07:33N 43°26' E 010°11'9 8.8
2014-Sep-24 06:33N 43°33' E 010°18'0 0.0
2014-Sep-24 05:34N 43°33' E 010°18'4 3.5
2014-Sep-24 04:34N 43°30' E 010°15'1616.1
2014-Sep-24 03:34N 43°15' E 010°09'12 0.7
2014-Sep-23 09:34N 43°04' E 010°04'1817.6
2014-Sep-23 08:34N 43°21' E 010°10'1313.4
2014-Sep-23 07:34N 43°33' E 010°18'0 0.4
2014-Sep-23 06:33N 43°33' E 010°18'0 0.0
2014-Sep-23 05:34N 43°33' E 010°18'4 4.2
2014-Sep-23 04:33N 43°30' E 010°14'1717.3
2014-Sep-23 03:33N 43°13' E 010°08'  
Track history (hours):
 
Tides and Currents Weather Stations Pressure Air Temp Water Temp Dewpoint Dewpoint Depression Visibility Wind Speed Wind Dir Waves Ship Positions

Sardinia Regina

Last reported at 2014-Oct-02 14:33 UTC. Time now 2014-Oct-02 14:39 UTC.
Position N 43°03' E 009°59'.

Length 146 m; draft 5 m.

Type: Passenger vessel. MMSI: 247079000.

Date/timePositionNaut miles runAvg speedWind from/ knotsBaromVisibWave heightAir tempDewpointWater temp
2014-Oct-02 14:33N 43°03' E 009°59'13 2.5
2014-Oct-02 09:33N 42°54' E 009°48'1616.0
2014-Oct-02 08:33N 43°06' E 010°01'1616.7
2014-Oct-02 07:33N 43°22' E 010°08'1313.1
2014-Oct-02 06:34N 43°33' E 010°18'0 0.1
2014-Oct-02 05:34N 43°33' E 010°18'3 3.4
2014-Oct-02 04:33N 43°31' E 010°15'1616.1
2014-Oct-02 03:33N 43°15' E 010°09'13915.3
2014-Oct-01 18:29N 40°58' E 009°38'132 6.3
2014-Sep-30 21:33N 43°08' E 010°05'1717.2
2014-Sep-30 20:33N 43°25' E 010°11'1010.0
2014-Sep-30 19:33N 43°33' E 010°18'0 0.0
2014-Sep-30 18:33N 43°33' E 010°18'0 0.0
2014-Sep-30 17:33N 43°33' E 010°18'0 0.0
2014-Sep-30 16:33N 43°33' E 010°18'1110.9
2014-Sep-30 15:33N 43°24' E 010°11'1918.0
2014-Sep-30 14:31N 43°06' E 010°01'17 3.2
2014-Sep-30 09:16N 42°53' E 009°47'1216.6
2014-Sep-30 08:33N 43°02' E 009°58'1717.3
2014-Sep-30 07:33N 43°18' E 010°06'1615.9
2014-Sep-30 06:33N 43°32' E 010°16'2 1.7
2014-Sep-30 05:33N 43°33' E 010°18'0 0.0
2014-Sep-30 04:33N 43°33' E 010°18'0 0.0
2014-Sep-30 03:33N 43°33' E 010°18'0 0.0
2014-Sep-30 02:33N 43°33' E 010°18'0 0.0
2014-Sep-30 01:33N 43°33' E 010°18'0 0.0
2014-Sep-30 00:33N 43°33' E 010°18'0 0.0
2014-Sep-29 23:33N 43°33' E 010°18'0 0.0
2014-Sep-29 22:33N 43°33' E 010°18'0 0.0
2014-Sep-29 21:33N 43°33' E 010°18'0 0.0
2014-Sep-29 20:33N 43°33' E 010°18'0 0.0
2014-Sep-29 19:33N 43°33' E 010°18'0 0.0
2014-Sep-29 18:33N 43°33' E 010°18'0 0.0
2014-Sep-29 17:33N 43°33' E 010°18'0 0.0
2014-Sep-29 16:33N 43°33' E 010°18'0 0.0
2014-Sep-29 15:33N 43°33' E 010°18'0 0.0
2014-Sep-29 14:33N 43°33' E 010°18'0 0.0
2014-Sep-29 13:33N 43°33' E 010°18'0 0.0
2014-Sep-29 12:33N 43°33' E 010°18'0 0.0
2014-Sep-29 11:33N 43°33' E 010°18'0 0.0
2014-Sep-29 10:33N 43°33' E 010°18'0 0.0
2014-Sep-29 09:33N 43°33' E 010°18'0 0.0
2014-Sep-29 08:33N 43°33' E 010°18'0 0.0
2014-Sep-29 07:33N 43°33' E 010°18'0 0.0
2014-Sep-29 06:33N 43°33' E 010°18'0 0.0
2014-Sep-29 05:33N 43°33' E 010°18'9 9.1
2014-Sep-29 04:33N 43°25' E 010°12'3215.3
2014-Sep-29 02:28N 42°54' E 010°02'2115.3
2014-Sep-29 01:07N 42°34' E 009°58'915.1
2014-Sep-29 00:32N 42°25' E 009°56'28 1.2
2014-Sep-28 01:31N 41°58' E 009°50'1515.2
2014-Sep-28 00:34N 42°12' E 009°53'1515.1
2014-Sep-27 23:34N 42°27' E 009°56'1515.1
2014-Sep-27 22:34N 42°42' E 009°58'1515.3
2014-Sep-27 21:34N 42°57' E 010°03'1515.4
2014-Sep-27 20:34N 43°13' E 010°06'1515.4
2014-Sep-27 19:34N 43°27' E 010°12'7 7.2
2014-Sep-27 18:33N 43°33' E 010°18'0 0.0
2014-Sep-27 17:33N 43°33' E 010°18'0 0.0
2014-Sep-27 16:33N 43°33' E 010°18'3 3.0
2014-Sep-27 15:34N 43°31' E 010°15'1717.2
2014-Sep-27 14:33N 43°15' E 010°06'1817.3
2014-Sep-27 13:32N 42°59' E 009°57'8 2.0
2014-Sep-27 09:23N 42°54' E 009°48'1417.1
2014-Sep-27 08:33N 43°04' E 009°60'1818.0
2014-Sep-27 07:33N 43°21' E 010°08'1413.5
2014-Sep-27 06:34N 43°33' E 010°18'0 0.3
2014-Sep-27 05:33N 43°33' E 010°18'3 2.9
2014-Sep-27 04:33N 43°31' E 010°15'1514.9
2014-Sep-27 03:33N 43°17' E 010°08'1616.1
2014-Sep-27 02:33N 43°01' E 010°04'1616.3
2014-Sep-27 01:33N 42°45' E 009°60'17 1.0
2014-Sep-26 09:34N 43°01' E 010°04'1817.6
2014-Sep-26 08:34N 43°19' E 010°09'1515.0
2014-Sep-26 07:33N 43°32' E 010°17'1 0.8
2014-Sep-26 06:33N 43°33' E 010°18'0 0.0
2014-Sep-26 05:33N 43°33' E 010°18'3 3.2
2014-Sep-26 04:33N 43°31' E 010°15'1616.1
2014-Sep-26 03:33N 43°15' E 010°09'14 0.7
2014-Sep-25 09:18N 43°02' E 010°04'1317.9
2014-Sep-25 08:34N 43°15' E 010°08'1717.2
2014-Sep-25 07:33N 43°32' E 010°14'3 3.0
2014-Sep-25 06:33N 43°33' E 010°18'0 0.0
2014-Sep-25 05:33N 43°33' E 010°18'4 4.0
2014-Sep-25 04:33N 43°30' E 010°14'1515.1
2014-Sep-25 03:33N 43°16' E 010°09'19 1.0
2014-Sep-24 09:12N 42°57' E 010°02'1118.1
2014-Sep-24 08:33N 43°08' E 010°06'1817.7
2014-Sep-24 07:33N 43°26' E 010°11'9 8.8
2014-Sep-24 06:33N 43°33' E 010°18'0 0.0
2014-Sep-24 05:34N 43°33' E 010°18'4 3.5
2014-Sep-24 04:34N 43°30' E 010°15'1616.1
2014-Sep-24 03:34N 43°15' E 010°09'12 0.7
2014-Sep-23 09:34N 43°04' E 010°04'1817.6
2014-Sep-23 08:34N 43°21' E 010°10'1313.4
2014-Sep-23 07:34N 43°33' E 010°18'0 0.4
2014-Sep-23 06:33N 43°33' E 010°18'0 0.0
2014-Sep-23 05:34N 43°33' E 010°18'4 4.2
2014-Sep-23 04:33N 43°30' E 010°14'1717.3
2014-Sep-23 03:33N 43°13' E 010°08'  

Dump ship's entire track history